createdAt,value
2019-03-17T00:00:24.811Z,10.77
2019-03-17T00:02:53.505Z,12.83
2019-03-17T00:05:22.092Z,11.97
2019-03-17T00:07:50.659Z,15.03
2019-03-17T00:10:19.420Z,13.37
2019-03-17T00:12:48.007Z,10.07
2019-03-17T00:15:16.683Z,9.90
2019-03-17T00:17:45.226Z,16.10
2019-03-17T00:20:13.865Z,9.30
2019-03-17T00:22:42.712Z,15.23
2019-03-17T00:25:11.694Z,15.17
2019-03-17T00:27:40.528Z,11.10
2019-03-17T00:30:12.576Z,11.47
2019-03-17T00:32:41.116Z,10.33
2019-03-17T00:35:10.206Z,11.90
2019-03-17T00:37:38.896Z,14.13
2019-03-17T00:40:10.000Z,23.43
2019-03-17T00:42:39.148Z,26.20
2019-03-17T00:45:12.088Z,35.10
2019-03-17T00:47:41.355Z,39.57
2019-03-17T00:50:11.249Z,22.17
2019-03-17T00:52:39.853Z,26.93
2019-03-17T00:55:08.674Z,22.63
2019-03-17T00:57:37.539Z,14.40
2019-03-17T01:00:09.584Z,24.50
2019-03-17T01:02:38.281Z,28.37
2019-03-17T01:05:07.029Z,40.13
2019-03-17T01:07:35.660Z,29.00
2019-03-17T01:10:06.093Z,18.50
2019-03-17T01:12:34.642Z,24.20
2019-03-17T01:15:03.847Z,23.13
2019-03-17T01:17:33.484Z,15.97
2019-03-17T01:20:02.535Z,17.97
2019-03-17T01:22:50.689Z,27.27
2019-03-17T01:25:19.650Z,25.60
2019-03-17T01:27:48.279Z,16.50
2019-03-17T01:30:17.103Z,13.70
2019-03-17T01:32:46.248Z,9.10
2019-03-17T01:35:14.811Z,11.23
2019-03-17T01:37:43.379Z,14.43
2019-03-17T01:40:12.340Z,9.30
2019-03-17T01:42:41.075Z,7.83
2019-03-17T01:45:10.824Z,9.57
2019-03-17T01:47:39.465Z,13.57
2019-03-17T01:50:08.947Z,9.70
2019-03-17T01:52:37.593Z,11.83
2019-03-17T01:55:07.111Z,9.27
2019-03-17T01:57:35.848Z,9.27
2019-03-17T02:00:06.565Z,11.80
2019-03-17T02:02:35.141Z,9.80
2019-03-17T02:05:04.650Z,12.03
2019-03-17T02:07:33.397Z,7.87
2019-03-17T02:10:02.179Z,7.90
2019-03-17T02:12:31.139Z,10.00
2019-03-17T02:15:00.433Z,8.37
2019-03-17T02:17:29.065Z,8.33
2019-03-17T02:19:57.740Z,11.23
2019-03-17T02:22:26.260Z,7.67
2019-03-17T02:24:54.835Z,7.10
2019-03-17T02:27:23.391Z,9.47
2019-03-17T02:29:52.066Z,9.57
2019-03-17T02:32:20.630Z,12.07
2019-03-17T02:34:49.216Z,8.00
2019-03-17T02:37:17.761Z,8.57
2019-03-17T02:39:46.356Z,10.43
2019-03-17T02:42:14.917Z,11.07
2019-03-17T02:44:43.510Z,7.83
2019-03-17T02:47:12.061Z,7.60
2019-03-17T02:49:40.733Z,6.57
2019-03-17T02:52:09.283Z,7.13
2019-03-17T02:54:37.872Z,7.80
2019-03-17T02:57:06.516Z,8.67
2019-03-17T02:59:35.128Z,10.17
2019-03-17T03:02:03.674Z,10.23
2019-03-17T03:04:32.238Z,7.53
2019-03-17T03:07:00.844Z,8.57
2019-03-17T03:09:29.461Z,7.83
2019-03-17T03:12:11.386Z,9.33
2019-03-17T03:14:39.951Z,7.83
2019-03-17T03:17:08.582Z,8.13
2019-03-17T03:19:37.133Z,7.90
2019-03-17T03:22:05.717Z,10.90
2019-03-17T03:24:34.273Z,9.03
2019-03-17T03:27:02.855Z,8.00
2019-03-17T03:29:31.421Z,9.77
2019-03-17T03:32:00.009Z,8.93
2019-03-17T03:34:28.570Z,9.37
2019-03-17T03:36:57.145Z,8.27
2019-03-17T03:39:25.768Z,8.47
2019-03-17T03:41:54.303Z,6.57
2019-03-17T03:44:22.888Z,5.93
2019-03-17T03:46:51.479Z,7.47
2019-03-17T03:49:20.046Z,8.50
2019-03-17T03:51:51.681Z,7.97
2019-03-17T03:54:20.289Z,8.80
2019-03-17T03:56:48.872Z,15.43
2019-03-17T03:59:17.511Z,8.37
2019-03-17T04:01:46.099Z,7.50
2019-03-17T04:04:14.660Z,8.73
2019-03-17T04:06:43.249Z,6.50
2019-03-17T04:09:11.813Z,7.90
2019-03-17T04:11:40.471Z,5.70
2019-03-17T04:14:09.054Z,9.00
2019-03-17T04:16:37.636Z,7.77
2019-03-17T04:19:06.198Z,8.40
2019-03-17T04:21:34.952Z,7.23
2019-03-17T04:24:03.488Z,7.63
2019-03-17T04:26:32.082Z,8.23
2019-03-17T04:29:00.638Z,8.00
2019-03-17T04:31:29.238Z,9.27
2019-03-17T04:33:57.913Z,8.27
2019-03-17T04:36:39.579Z,7.50
2019-03-17T04:38:56.800Z,10.23
2019-03-17T04:41:25.392Z,7.20
2019-03-17T04:43:54.034Z,8.80
2019-03-17T04:46:22.601Z,9.57
2019-03-17T04:48:51.219Z,7.27
2019-03-17T04:51:20.744Z,9.83
2019-03-17T04:53:49.302Z,9.10
2019-03-17T04:56:17.887Z,8.27
2019-03-17T04:58:46.491Z,9.40
2019-03-17T05:01:15.158Z,7.17
2019-03-17T05:03:43.733Z,9.10
2019-03-17T05:06:12.348Z,11.90
2019-03-17T05:08:40.916Z,8.83
2019-03-17T05:11:09.489Z,7.10
2019-03-17T05:13:38.063Z,7.97
2019-03-17T05:16:06.684Z,10.03
2019-03-17T05:18:35.243Z,12.33
2019-03-17T05:21:03.823Z,14.03
2019-03-17T05:23:32.412Z,9.60
2019-03-17T05:26:01.014Z,13.50
2019-03-17T05:28:29.597Z,12.50
2019-03-17T05:30:58.164Z,10.33
2019-03-17T05:33:26.764Z,10.07
2019-03-17T05:35:55.367Z,11.10
2019-03-17T05:38:23.983Z,12.87
2019-03-17T05:40:52.572Z,13.33
2019-03-17T05:43:21.119Z,9.23
2019-03-17T05:45:49.699Z,8.93
2019-03-17T05:48:18.335Z,11.30
2019-03-17T05:50:46.893Z,11.50
2019-03-17T05:53:15.471Z,9.57
2019-03-17T05:55:44.041Z,10.80
2019-03-17T05:58:12.642Z,11.43
2019-03-17T06:00:41.208Z,11.13
2019-03-17T06:03:09.797Z,11.37
2019-03-17T06:05:38.357Z,17.27
2019-03-17T06:08:07.016Z,12.73
2019-03-17T06:10:35.584Z,15.13
2019-03-17T06:13:04.179Z,13.83
2019-03-17T06:15:32.742Z,15.40
2019-03-17T06:18:01.384Z,19.30
2019-03-17T06:20:29.971Z,14.93
2019-03-17T06:22:58.583Z,15.23
2019-03-17T06:25:27.168Z,15.13
2019-03-17T06:28:15.160Z,11.97
2019-03-17T06:30:43.716Z,12.50
2019-03-17T06:33:12.296Z,11.00
2019-03-17T06:35:40.902Z,10.03
2019-03-17T06:38:09.464Z,9.90
2019-03-17T06:40:38.011Z,9.53
2019-03-17T06:43:06.596Z,7.33
2019-03-17T06:45:35.144Z,8.87
2019-03-17T06:48:03.787Z,7.80
2019-03-17T06:50:32.347Z,7.60
2019-03-17T06:53:00.934Z,9.93
2019-03-17T06:55:29.494Z,8.87
2019-03-17T06:57:58.077Z,6.67
2019-03-17T07:00:26.632Z,8.37
2019-03-17T07:02:55.283Z,7.00
2019-03-17T07:05:23.905Z,8.27
2019-03-17T07:07:52.458Z,8.63
2019-03-17T07:10:21.036Z,11.37
2019-03-17T07:12:49.587Z,10.50
2019-03-17T07:15:18.192Z,6.70
2019-03-17T07:17:46.764Z,7.93
2019-03-17T07:20:15.477Z,6.87
2019-03-17T07:22:44.116Z,6.30
2019-03-17T07:25:12.838Z,7.20
2019-03-17T07:27:41.390Z,7.47
2019-03-17T07:30:14.524Z,10.30
2019-03-17T07:32:43.093Z,6.73
2019-03-17T07:35:11.833Z,7.97
2019-03-17T07:37:40.422Z,6.73
2019-03-17T07:40:11.209Z,10.00
2019-03-17T07:42:39.841Z,6.67
2019-03-17T07:45:10.638Z,10.53
2019-03-17T07:47:39.399Z,8.60
2019-03-17T07:50:13.450Z,8.27
2019-03-17T07:52:42.027Z,6.00
2019-03-17T07:55:11.088Z,7.87
2019-03-17T07:57:39.677Z,8.97
2019-03-17T08:00:11.082Z,9.63
2019-03-17T08:02:39.669Z,7.07
2019-03-17T08:05:09.729Z,9.43
2019-03-17T08:07:38.432Z,9.63
2019-03-17T08:10:14.746Z,8.80
2019-03-17T08:12:43.330Z,9.70
2019-03-17T08:15:13.263Z,7.13
2019-03-17T08:17:41.983Z,9.80
2019-03-17T08:20:11.612Z,7.90
2019-03-17T08:22:40.255Z,10.63
2019-03-17T08:25:10.906Z,8.60
2019-03-17T08:27:39.541Z,9.77
2019-03-17T08:30:11.416Z,6.80
2019-03-17T08:32:41.239Z,15.53
2019-03-17T08:35:10.520Z,10.03
2019-03-17T08:37:39.154Z,6.03
2019-03-17T08:40:10.813Z,5.33
2019-03-17T08:42:39.387Z,8.67
2019-03-17T08:45:10.416Z,6.30
2019-03-17T08:47:38.963Z,5.50
2019-03-17T08:50:12.206Z,5.80
2019-03-17T08:52:42.036Z,4.43
2019-03-17T08:55:11.280Z,7.30
2019-03-17T08:57:39.900Z,4.83
2019-03-17T09:00:16.935Z,6.07
2019-03-17T09:02:45.774Z,4.40
2019-03-17T09:05:14.554Z,4.97
2019-03-17T09:07:44.746Z,5.60
2019-03-17T09:10:14.656Z,4.27
2019-03-17T09:12:43.207Z,5.90
2019-03-17T09:15:11.917Z,11.83
2019-03-17T09:17:40.548Z,5.87
2019-03-17T09:20:13.395Z,5.20
2019-03-17T09:22:42.002Z,5.10
2019-03-17T09:25:11.253Z,4.40
2019-03-17T09:27:39.847Z,3.80
2019-03-17T09:30:15.871Z,4.03
2019-03-17T09:32:44.510Z,3.77
2019-03-17T09:35:13.321Z,7.07
2019-03-17T09:37:41.966Z,6.07
2019-03-17T09:40:17.420Z,6.80
2019-03-17T09:42:46.334Z,3.97
2019-03-17T09:45:15.673Z,6.47
2019-03-17T09:47:44.222Z,3.90
2019-03-17T09:50:17.805Z,3.47
2019-03-17T09:52:46.471Z,4.17
2019-03-17T09:55:15.175Z,7.27
2019-03-17T09:57:43.875Z,3.57
2019-03-17T10:00:18.160Z,4.37
2019-03-17T10:02:46.753Z,3.33
2019-03-17T10:05:15.870Z,5.83
2019-03-17T10:07:44.612Z,3.80
2019-03-17T10:10:15.012Z,4.13
2019-03-17T10:12:43.975Z,4.53
2019-03-17T10:15:14.259Z,3.40
2019-03-17T10:17:42.958Z,3.13
2019-03-17T10:20:16.430Z,3.70
2019-03-17T10:22:45.186Z,3.90
2019-03-17T10:25:13.877Z,3.60
2019-03-17T10:27:42.557Z,3.63
2019-03-17T10:30:18.305Z,5.23
2019-03-17T10:32:46.942Z,3.10
2019-03-17T10:35:15.488Z,4.57
2019-03-17T10:37:44.104Z,3.37
2019-03-17T10:40:14.762Z,3.53
2019-03-17T10:42:43.465Z,3.57
2019-03-17T10:45:12.967Z,3.50
2019-03-17T10:47:41.709Z,3.73
2019-03-17T10:50:21.678Z,4.30
2019-03-17T10:52:50.242Z,7.87
2019-03-17T10:55:18.805Z,3.10
2019-03-17T10:57:47.536Z,7.30
2019-03-17T11:00:18.548Z,4.70
2019-03-17T11:02:47.318Z,3.27
2019-03-17T11:05:16.020Z,3.00
2019-03-17T11:07:44.698Z,4.53
2019-03-17T11:10:14.371Z,3.30
2019-03-17T11:12:42.948Z,3.17
2019-03-17T11:15:22.277Z,3.40
2019-03-17T11:17:51.131Z,3.70
2019-03-17T11:20:19.880Z,3.33
2019-03-17T11:22:52.199Z,6.20
2019-03-17T11:25:23.983Z,4.47
2019-03-17T11:27:52.630Z,3.43
2019-03-17T11:30:22.235Z,4.30
2019-03-17T11:32:50.877Z,5.07
2019-03-17T11:35:19.416Z,3.63
2019-03-17T11:37:48.177Z,3.17
2019-03-17T11:40:18.056Z,2.90
2019-03-17T11:42:49.473Z,2.80
2019-03-17T11:45:17.593Z,2.80
2019-03-17T11:47:46.868Z,2.70
2019-03-17T11:50:16.646Z,4.83
2019-03-17T11:52:45.350Z,3.23
2019-03-17T11:55:14.219Z,3.00
2019-03-17T11:57:43.244Z,3.53
2019-03-17T12:00:24.573Z,2.70
2019-03-17T12:02:53.136Z,3.50
2019-03-17T12:05:21.743Z,3.93
2019-03-17T12:07:50.535Z,2.87
2019-03-17T12:10:23.144Z,3.20
2019-03-17T12:12:51.810Z,4.60
2019-03-17T12:15:26.228Z,14.27
2019-03-17T12:17:54.966Z,4.30
2019-03-17T12:20:23.741Z,3.37
2019-03-17T12:22:52.320Z,4.90
2019-03-17T12:25:20.960Z,6.90
2019-03-17T12:27:49.720Z,2.93
2019-03-17T12:30:20.303Z,4.47
2019-03-17T12:32:50.281Z,3.03
2019-03-17T12:35:18.812Z,3.50
2019-03-17T12:37:47.469Z,4.40
2019-03-17T12:41:26.037Z,3.50
2019-03-17T12:43:54.653Z,3.00
2019-03-17T12:46:23.212Z,5.23
2019-03-17T12:48:51.792Z,3.80
2019-03-17T12:51:20.482Z,4.90
2019-03-17T12:53:50.854Z,3.57
2019-03-17T12:56:21.345Z,3.17
2019-03-17T12:58:53.123Z,3.67
2019-03-17T13:01:24.375Z,3.60
2019-03-17T13:03:53.109Z,3.43
2019-03-17T13:06:32.345Z,4.27
2019-03-17T13:09:01.997Z,4.13
2019-03-17T13:11:47.249Z,3.20
2019-03-17T13:14:30.243Z,4.13
2019-03-17T13:19:43.943Z,3.10
2019-03-17T13:22:12.546Z,2.93
2019-03-17T13:24:41.091Z,3.73
2019-03-17T13:27:09.702Z,7.27
2019-03-17T13:29:38.292Z,3.27
2019-03-17T13:32:06.844Z,3.70
2019-03-17T13:34:35.434Z,3.00
2019-03-17T13:37:04.022Z,3.50
2019-03-17T13:39:32.588Z,3.30
2019-03-17T13:42:01.155Z,5.20
2019-03-17T13:44:29.754Z,3.37
2019-03-17T13:46:58.351Z,5.33
2019-03-17T13:49:26.938Z,3.37
2019-03-17T13:51:55.492Z,3.70
2019-03-17T13:54:24.095Z,5.87
2019-03-17T13:56:52.676Z,3.50
2019-03-17T13:59:28.347Z,5.27
2019-03-17T14:01:56.963Z,4.47
2019-03-17T14:04:25.619Z,4.03
2019-03-17T14:06:54.216Z,3.47
2019-03-17T14:09:22.801Z,4.60
2019-03-17T14:11:51.380Z,3.50
2019-03-17T14:14:19.995Z,3.40
2019-03-17T14:16:48.527Z,4.87
2019-03-17T14:19:17.169Z,3.60
2019-03-17T14:21:45.707Z,5.10
2019-03-17T14:24:14.430Z,6.53
2019-03-17T14:26:42.992Z,3.60
2019-03-17T14:29:11.571Z,4.33
2019-03-17T14:31:40.172Z,3.80
2019-03-17T14:34:08.715Z,3.50
2019-03-17T14:36:37.349Z,3.20
2019-03-17T14:39:06.802Z,3.90
2019-03-17T14:41:35.529Z,4.93
2019-03-17T14:44:07.653Z,6.33
2019-03-17T14:46:36.228Z,4.67
2019-03-17T14:49:04.953Z,3.90
2019-03-17T14:51:33.511Z,4.03
2019-03-17T14:54:02.104Z,9.60
2019-03-17T14:56:30.815Z,4.47
2019-03-17T14:58:59.388Z,7.43
2019-03-17T15:01:27.984Z,7.93
2019-03-17T15:03:56.575Z,5.63
2019-03-17T15:06:25.259Z,4.90
2019-03-17T15:08:54.205Z,3.80
2019-03-17T15:11:22.847Z,4.27
2019-03-17T15:13:51.460Z,5.53
2019-03-17T15:16:20.059Z,3.60
2019-03-17T15:18:48.651Z,4.30
2019-03-17T15:21:17.211Z,3.93
2019-03-17T15:23:45.970Z,8.43
2019-03-17T15:26:14.607Z,3.70
2019-03-17T15:28:43.170Z,4.17
2019-03-17T15:31:12.588Z,8.80
2019-03-17T15:33:41.335Z,4.90
2019-03-17T15:36:09.943Z,8.63
2019-03-17T15:38:38.566Z,6.60
2019-03-17T15:41:18.099Z,5.20
2019-03-17T15:43:37.418Z,10.40
2019-03-17T15:46:06.003Z,6.27
2019-03-17T15:48:34.584Z,4.23
2019-03-17T15:51:03.178Z,5.23
2019-03-17T15:53:33.338Z,6.00
2019-03-17T15:56:01.897Z,6.03
2019-03-17T15:58:30.506Z,6.93
2019-03-17T16:00:59.095Z,8.17
2019-03-17T16:03:27.670Z,9.40
2019-03-17T16:05:56.256Z,8.10
2019-03-17T16:08:24.859Z,8.03
2019-03-17T16:10:53.473Z,10.13
2019-03-17T16:13:22.066Z,6.20
2019-03-17T16:15:53.296Z,7.97
2019-03-17T16:18:23.461Z,8.13
2019-03-17T16:20:52.144Z,7.87
2019-03-17T16:23:20.700Z,8.33
2019-03-17T16:25:50.669Z,11.10
2019-03-17T16:28:19.374Z,7.10
2019-03-17T16:30:48.063Z,9.13
2019-03-17T16:33:16.764Z,8.67
2019-03-17T16:35:46.440Z,3.40
2019-03-17T16:38:15.395Z,3.60
2019-03-17T16:40:44.110Z,4.57
2019-03-17T16:43:12.688Z,3.60
2019-03-17T16:45:41.306Z,8.07
2019-03-17T16:48:09.975Z,8.23
2019-03-17T16:50:38.632Z,3.10
2019-03-17T16:53:07.221Z,2.93
2019-03-17T16:55:35.981Z,3.10
2019-03-17T16:58:04.861Z,3.20
2019-03-17T17:00:33.462Z,3.40
2019-03-17T17:03:02.162Z,3.00
2019-03-17T17:05:30.760Z,3.43
2019-03-17T17:07:59.530Z,2.93
2019-03-17T17:10:30.068Z,3.33
2019-03-17T17:12:58.974Z,3.40
2019-03-17T17:15:29.246Z,4.03
2019-03-17T17:17:58.187Z,4.90
2019-03-17T17:20:35.022Z,3.13
2019-03-17T17:23:04.134Z,3.10
2019-03-17T17:25:32.768Z,3.37
2019-03-17T17:28:01.602Z,4.70
2019-03-17T17:30:30.333Z,2.93
2019-03-17T17:33:00.773Z,3.40
2019-03-17T17:35:29.411Z,3.53
2019-03-17T17:37:58.083Z,3.40
2019-03-17T17:40:27.758Z,5.13
2019-03-17T17:42:56.331Z,4.80
2019-03-17T17:45:26.564Z,3.67
2019-03-17T17:47:55.085Z,4.60
2019-03-17T17:50:25.541Z,3.70
2019-03-17T17:52:54.093Z,3.73
2019-03-17T17:55:22.685Z,4.00
2019-03-17T17:57:52.799Z,3.67
2019-03-17T18:00:23.573Z,3.47
2019-03-17T18:02:52.173Z,3.90
2019-03-17T18:05:20.943Z,3.90
2019-03-17T18:07:49.519Z,4.03
2019-03-17T18:10:18.765Z,3.70
2019-03-17T18:12:47.522Z,3.47
2019-03-17T18:15:25.190Z,3.30
2019-03-17T18:17:54.157Z,4.00
2019-03-17T18:20:23.152Z,5.77
2019-03-17T18:22:52.264Z,3.63
2019-03-17T18:25:21.900Z,7.07
2019-03-17T18:27:50.554Z,4.60
2019-03-17T18:30:24.389Z,4.60
2019-03-17T18:32:53.001Z,7.57
2019-03-17T18:35:21.700Z,4.97
2019-03-17T18:37:51.255Z,4.77
2019-03-17T18:40:21.314Z,6.03
2019-03-17T18:42:50.048Z,3.50
2019-03-17T18:45:29.321Z,3.63
2019-03-17T18:47:58.421Z,3.90
2019-03-17T18:50:27.215Z,3.60
2019-03-17T18:52:55.977Z,3.23
2019-03-17T18:55:26.273Z,3.20
2019-03-17T18:57:54.845Z,5.83
2019-03-17T19:00:25.684Z,4.30
2019-03-17T19:02:54.239Z,4.30
2019-03-17T19:05:22.958Z,3.70
2019-03-17T19:07:51.610Z,3.80
2019-03-17T19:10:20.973Z,4.80
2019-03-17T19:12:49.646Z,3.50
2019-03-17T19:15:19.727Z,3.90
2019-03-17T19:17:48.460Z,3.77
2019-03-17T19:20:18.001Z,3.47
2019-03-17T19:22:46.636Z,5.03
2019-03-17T19:25:16.637Z,3.60
2019-03-17T19:27:45.316Z,3.70
2019-03-17T19:30:23.657Z,3.43
2019-03-17T19:32:52.490Z,4.40
2019-03-17T19:35:21.159Z,3.63
2019-03-17T19:37:49.801Z,3.40
2019-03-17T19:40:23.206Z,3.70
2019-03-17T19:42:58.538Z,3.67
2019-03-17T19:45:22.079Z,4.97
2019-03-17T19:47:50.714Z,16.77
2019-03-17T19:50:20.936Z,7.30
2019-03-17T19:52:49.459Z,7.43
2019-03-17T19:55:18.046Z,6.50
2019-03-17T19:57:46.684Z,5.80
2019-03-17T20:00:19.507Z,3.87
2019-03-17T20:02:48.207Z,4.47
2019-03-17T20:05:18.411Z,3.63
2019-03-17T20:07:47.080Z,3.77
2019-03-17T20:10:21.234Z,3.70
2019-03-17T20:12:49.798Z,4.00
2019-03-17T20:18:47.896Z,3.53
2019-03-17T20:21:19.217Z,4.23
2019-03-17T20:23:47.910Z,3.93
2019-03-17T20:26:16.508Z,4.17
2019-03-17T20:28:46.813Z,3.90
2019-03-17T20:31:15.551Z,8.07
2019-03-17T20:33:44.523Z,7.53
2019-03-17T20:36:13.081Z,15.53
2019-03-17T20:38:41.661Z,18.70
2019-03-17T20:41:10.344Z,22.87
2019-03-17T20:43:38.971Z,21.00
2019-03-17T20:46:07.573Z,22.23
2019-03-17T20:48:36.191Z,14.53
2019-03-17T20:51:04.848Z,12.07
2019-03-17T20:53:33.400Z,9.90
2019-03-17T20:56:01.967Z,15.97
2019-03-17T20:58:30.640Z,19.00
2019-03-17T21:00:59.220Z,15.67
2019-03-17T21:03:27.786Z,10.77
2019-03-17T21:05:56.524Z,9.70
2019-03-17T21:08:25.096Z,13.53
2019-03-17T21:10:53.680Z,9.27
2019-03-17T21:13:23.850Z,9.60
2019-03-17T21:15:52.529Z,10.37
2019-03-17T21:18:21.106Z,6.93
2019-03-17T21:20:49.684Z,5.37
2019-03-17T21:23:18.264Z,3.80
2019-03-17T21:25:46.900Z,3.87
2019-03-17T21:28:15.513Z,4.37
2019-03-17T21:30:44.069Z,4.13
2019-03-17T21:33:12.809Z,3.83
2019-03-17T21:35:41.389Z,8.00
2019-03-17T21:38:10.166Z,4.73
2019-03-17T21:41:01.654Z,5.53
2019-03-17T21:43:14.927Z,3.47
2019-03-17T21:45:43.585Z,3.77
2019-03-17T21:48:12.147Z,3.67
2019-03-17T21:50:40.753Z,3.53
2019-03-17T21:53:09.317Z,4.17
2019-03-17T21:55:43.689Z,3.53
2019-03-17T21:58:12.260Z,3.90
2019-03-17T22:00:40.841Z,4.00
2019-03-17T22:03:10.932Z,4.30
2019-03-17T22:05:39.958Z,3.80
2019-03-17T22:08:08.452Z,3.70
2019-03-17T22:10:50.519Z,3.90
2019-03-17T22:13:10.430Z,3.83
2019-03-17T22:15:39.123Z,5.00
2019-03-17T22:18:07.690Z,3.90
2019-03-17T22:20:36.554Z,3.30
2019-03-17T22:23:07.130Z,3.80
2019-03-17T22:25:35.813Z,3.40
2019-03-17T22:28:08.725Z,4.37
2019-03-17T22:30:34.676Z,4.07
2019-03-17T22:33:03.387Z,3.50
2019-03-17T22:35:32.062Z,3.50
2019-03-17T22:38:00.729Z,3.40
2019-03-17T22:40:29.301Z,4.73
2019-03-17T22:42:58.053Z,3.30
2019-03-17T22:45:26.840Z,4.00
2019-03-17T22:47:56.606Z,5.33
2019-03-17T22:50:25.223Z,4.13
2019-03-17T22:52:53.883Z,4.23
2019-03-17T22:55:22.457Z,5.93
2019-03-17T22:57:51.038Z,4.57
2019-03-17T23:00:24.695Z,4.37
2019-03-17T23:02:55.350Z,3.47
2019-03-17T23:05:23.873Z,3.40
2019-03-17T23:07:52.487Z,3.90
2019-03-17T23:10:21.176Z,4.03
2019-03-17T23:12:49.912Z,3.70
2019-03-17T23:15:18.588Z,5.37
2019-03-17T23:17:47.176Z,3.57
2019-03-17T23:20:23.754Z,4.30
2019-03-17T23:22:52.348Z,3.60
2019-03-17T23:25:20.903Z,3.30
2019-03-17T23:27:49.515Z,5.83
2019-03-17T23:30:22.222Z,3.40
2019-03-17T23:32:50.782Z,3.17
2019-03-17T23:35:19.424Z,3.50
2019-03-17T23:37:48.000Z,4.33
2019-03-17T23:40:18.146Z,3.57
2019-03-17T23:42:46.812Z,7.07
2019-03-17T23:45:15.498Z,3.47
2019-03-17T23:47:44.075Z,3.70
2019-03-17T23:50:15.684Z,3.30
2019-03-17T23:52:44.337Z,3.80
2019-03-17T23:55:13.720Z,3.77
2019-03-17T23:57:42.373Z,3.70
